sensor_id;sensor_type;location;lat;lon;timestamp;pressure;altitude;pressure_sealevel;temperature;humidity
10992;BME280;5549;47.028;15.514;2022-09-09T00:02:19;96468.47;;;17.68;66.16
10992;BME280;5549;47.028;15.514;2022-09-09T00:04:59;96465.13;;;17.66;66.11
10992;BME280;5549;47.028;15.514;2022-09-09T00:07:41;96469.97;;;17.62;66.24
10992;BME280;5549;47.028;15.514;2022-09-09T00:10:20;96468.97;;;17.63;66.23
10992;BME280;5549;47.028;15.514;2022-09-09T00:12:57;96467.78;;;17.66;66.02
10992;BME280;5549;47.028;15.514;2022-09-09T00:15:37;96470.16;;;17.60;66.16
10992;BME280;5549;47.028;15.514;2022-09-09T00:18:18;96475.47;;;17.60;66.05
10992;BME280;5549;47.028;15.514;2022-09-09T00:20:57;96482.91;;;17.65;65.68
10992;BME280;5549;47.028;15.514;2022-09-09T00:23:30;96480.94;;;17.67;66.35
10992;BME280;5549;47.028;15.514;2022-09-09T00:26:05;96485.72;;;17.63;66.79
10992;BME280;5549;47.028;15.514;2022-09-09T00:28:43;96486.06;;;17.60;66.79
10992;BME280;5549;47.028;15.514;2022-09-09T00:31:23;96486.91;;;17.61;66.84
10992;BME280;5549;47.028;15.514;2022-09-09T00:33:56;96484.44;;;17.59;66.86
10992;BME280;5549;47.028;15.514;2022-09-09T00:36:27;96486.44;;;17.57;67.23
10992;BME280;5549;47.028;15.514;2022-09-09T00:38:58;96477.97;;;17.54;67.57
10992;BME280;5549;47.028;15.514;2022-09-09T00:41:42;96475.50;;;17.52;68.02
10992;BME280;5549;47.028;15.514;2022-09-09T00:44:28;96470.38;;;17.51;67.85
10992;BME280;5549;47.028;15.514;2022-09-09T00:47:12;96466.44;;;17.39;67.99
10992;BME280;5549;47.028;15.514;2022-09-09T00:49:57;96468.28;;;17.30;68.07
10992;BME280;5549;47.028;15.514;2022-09-09T00:52:36;96466.13;;;17.25;68.35
10992;BME280;5549;47.028;15.514;2022-09-09T00:55:16;96464.00;;;17.21;68.66
10992;BME280;5549;47.028;15.514;2022-09-09T00:57:50;96465.88;;;17.12;68.88
10992;BME280;5549;47.028;15.514;2022-09-09T01:00:24;96471.84;;;17.06;68.63
10992;BME280;5549;47.028;15.514;2022-09-09T01:03:21;96458.75;;;17.05;68.88
10992;BME280;5549;47.028;15.514;2022-09-09T01:06:02;96459.59;;;17.05;68.43
10992;BME280;5549;47.028;15.514;2022-09-09T01:08:47;96464.06;;;17.05;68.17
10992;BME280;5549;47.028;15.514;2022-09-09T01:11:22;96467.38;;;17.07;68.38
10992;BME280;5549;47.028;15.514;2022-09-09T01:13:59;96475.16;;;17.08;68.11
10992;BME280;5549;47.028;15.514;2022-09-09T01:16:32;96473.16;;;17.10;68.28
10992;BME280;5549;47.028;15.514;2022-09-09T01:19:03;96477.66;;;17.10;68.58
10992;BME280;5549;47.028;15.514;2022-09-09T01:21:44;96476.34;;;17.06;69.25
10992;BME280;5549;47.028;15.514;2022-09-09T01:24:25;96481.31;;;17.00;69.27
10992;BME280;5549;47.028;15.514;2022-09-09T01:26:58;96481.00;;;16.95;69.58
10992;BME280;5549;47.028;15.514;2022-09-09T01:29:31;96473.91;;;16.88;69.70
10992;BME280;5549;47.028;15.514;2022-09-09T01:32:00;96481.19;;;16.86;69.42
10992;BME280;5549;47.028;15.514;2022-09-09T01:34:34;96482.22;;;16.77;69.33
10992;BME280;5549;47.028;15.514;2022-09-09T01:37:06;96488.69;;;16.74;69.21
10992;BME280;5549;47.028;15.514;2022-09-09T01:39:36;96497.47;;;16.75;68.79
10992;BME280;5549;47.028;15.514;2022-09-09T01:42:11;96499.47;;;16.73;69.61
10992;BME280;5549;47.028;15.514;2022-09-09T01:44:40;96503.28;;;16.70;70.74
10992;BME280;5549;47.028;15.514;2022-09-09T01:47:09;96491.66;;;16.63;70.95
10992;BME280;5549;47.028;15.514;2022-09-09T01:49:40;96489.19;;;16.61;70.59
10992;BME280;5549;47.028;15.514;2022-09-09T01:52:12;96483.38;;;16.58;70.97
10992;BME280;5549;47.028;15.514;2022-09-09T01:54:40;96483.38;;;16.58;70.43
10992;BME280;5549;47.028;15.514;2022-09-09T01:57:18;96479.25;;;16.55;70.04
10992;BME280;5549;47.028;15.514;2022-09-09T02:00:01;96477.59;;;16.38;70.14
10992;BME280;5549;47.028;15.514;2022-09-09T02:02:39;96477.13;;;16.26;70.66
10992;BME280;5549;47.028;15.514;2022-09-09T02:05:24;96475.28;;;16.27;70.44
10992;BME280;5549;47.028;15.514;2022-09-09T02:08:05;96477.59;;;16.30;70.14
10992;BME280;5549;47.028;15.514;2022-09-09T02:10:45;96476.78;;;16.29;70.46
10992;BME280;5549;47.028;15.514;2022-09-09T02:13:20;96485.06;;;16.26;70.64
10992;BME280;5549;47.028;15.514;2022-09-09T02:15:55;96484.06;;;16.27;70.68
10992;BME280;5549;47.028;15.514;2022-09-09T02:18:34;96488.03;;;16.31;70.12
10992;BME280;5549;47.028;15.514;2022-09-09T02:21:08;96495.00;;;16.32;70.02
10992;BME280;5549;47.028;15.514;2022-09-09T02:23:44;96485.56;;;16.30;69.77
10992;BME280;5549;47.028;15.514;2022-09-09T02:26:16;96484.91;;;16.28;69.67
10992;BME280;5549;47.028;15.514;2022-09-09T02:28:51;96488.03;;;16.31;70.14
10992;BME280;5549;47.028;15.514;2022-09-09T02:31:24;96496.16;;;16.38;69.36
10992;BME280;5549;47.028;15.514;2022-09-09T02:33:58;96501.13;;;16.41;69.59
10992;BME280;5549;47.028;15.514;2022-09-09T02:36:34;96505.94;;;16.46;70.08
10992;BME280;5549;47.028;15.514;2022-09-09T02:39:09;96507.41;;;16.48;69.85
10992;BME280;5549;47.028;15.514;2022-09-09T02:41:43;96517.84;;;16.50;70.07
10992;BME280;5549;47.028;15.514;2022-09-09T02:44:14;96510.72;;;16.42;71.09
10992;BME280;5549;47.028;15.514;2022-09-09T02:47:12;96508.25;;;16.41;70.72
10992;BME280;5549;47.028;15.514;2022-09-09T02:49:52;96514.22;;;16.43;71.12
10992;BME280;5549;47.028;15.514;2022-09-09T02:52:32;96517.19;;;16.40;70.89
10992;BME280;5549;47.028;15.514;2022-09-09T02:55:09;96515.03;;;16.35;70.99
10992;BME280;5549;47.028;15.514;2022-09-09T02:57:47;96519.00;;;16.31;71.62
10992;BME280;5549;47.028;15.514;2022-09-09T03:00:24;96526.13;;;16.30;71.42
10992;BME280;5549;47.028;15.514;2022-09-09T03:02:55;96530.78;;;16.28;71.57
10992;BME280;5549;47.028;15.514;2022-09-09T03:05:28;96528.28;;;16.27;71.64
10992;BME280;5549;47.028;15.514;2022-09-09T03:08:01;96527.97;;;16.30;72.04
10992;BME280;5549;47.028;15.514;2022-09-09T03:10:30;96523.16;;;16.33;71.77
10992;BME280;5549;47.028;15.514;2022-09-09T03:13:07;96517.53;;;16.36;72.05
10992;BME280;5549;47.028;15.514;2022-09-09T03:15:54;96517.84;;;16.33;71.83
10992;BME280;5549;47.028;15.514;2022-09-09T03:18:34;96512.22;;;16.36;71.82
10992;BME280;5549;47.028;15.514;2022-09-09T03:21:08;96511.56;;;16.34;71.77
10992;BME280;5549;47.028;15.514;2022-09-09T03:23:45;96499.81;;;16.37;71.58
10992;BME280;5549;47.028;15.514;2022-09-09T03:26:20;96497.66;;;16.41;71.27
10992;BME280;5549;47.028;15.514;2022-09-09T03:28:59;96488.69;;;16.42;71.53
10992;BME280;5549;47.028;15.514;2022-09-09T03:31:36;96477.59;;;16.38;71.57
10992;BME280;5549;47.028;15.514;2022-09-09T03:34:05;96481.75;;;16.41;71.90
10992;BME280;5549;47.028;15.514;2022-09-09T03:36:38;96485.72;;;16.45;72.09
10992;BME280;5549;47.028;15.514;2022-09-09T03:39:07;96488.88;;;16.48;71.67
10992;BME280;5549;47.028;15.514;2022-09-09T03:41:37;96500.78;;;16.52;71.84
10992;BME280;5549;47.028;15.514;2022-09-09T03:44:04;96503.28;;;16.54;71.26
10992;BME280;5549;47.028;15.514;2022-09-09T03:46:33;96496.16;;;16.54;71.54
10992;BME280;5549;47.028;15.514;2022-09-09T03:49:04;96503.09;;;16.55;71.08
10992;BME280;5549;47.028;15.514;2022-09-09T03:51:32;96506.75;;;16.54;71.26
10992;BME280;5549;47.028;15.514;2022-09-09T03:54:08;96505.25;;;16.52;71.18
10992;BME280;5549;47.028;15.514;2022-09-09T03:56:39;96509.56;;;16.45;71.64
10992;BME280;5549;47.028;15.514;2022-09-09T03:59:08;96505.44;;;16.34;71.39
10992;BME280;5549;47.028;15.514;2022-09-09T04:01:42;96512.06;;;16.30;71.06
10992;BME280;5549;47.028;15.514;2022-09-09T04:04:19;96514.22;;;16.26;71.61
10992;BME280;5549;47.028;15.514;2022-09-09T04:06:50;96515.88;;;16.27;71.34
10992;BME280;5549;47.028;15.514;2022-09-09T04:09:20;96521.16;;;16.27;71.21
10992;BME280;5549;47.028;15.514;2022-09-09T04:11:50;96521.16;;;16.19;71.07
10992;BME280;5549;47.028;15.514;2022-09-09T04:14:19;96520.50;;;16.09;71.54
10992;BME280;5549;47.028;15.514;2022-09-09T04:16:47;96517.50;;;16.04;70.99
10992;BME280;5549;47.028;15.514;2022-09-09T04:19:18;96516.16;;;15.92;71.85
10992;BME280;5549;47.028;15.514;2022-09-09T04:21:46;96513.19;;;15.95;71.40
10992;BME280;5549;47.028;15.514;2022-09-09T04:24:16;96510.72;;;15.93;71.09
10992;BME280;5549;47.028;15.514;2022-09-09T04:26:44;96518.50;;;15.95;71.02
10992;BME280;5549;47.028;15.514;2022-09-09T04:29:16;96516.66;;;15.95;71.55
10992;BME280;5549;47.028;15.514;2022-09-09T04:31:43;96506.06;;;15.95;71.58
10992;BME280;5549;47.028;15.514;2022-09-09T04:34:13;96502.59;;;15.95;71.72
10992;BME280;5549;47.028;15.514;2022-09-09T04:36:45;96507.56;;;15.98;71.41
10992;BME280;5549;47.028;15.514;2022-09-09T04:39:15;96510.56;;;16.03;71.57
10992;BME280;5549;47.028;15.514;2022-09-09T04:41:43;96507.56;;;16.06;71.28
10992;BME280;5549;47.028;15.514;2022-09-09T04:44:12;96503.59;;;16.10;71.82
10992;BME280;5549;47.028;15.514;2022-09-09T04:46:42;96495.31;;;16.05;71.56
10992;BME280;5549;47.028;15.514;2022-09-09T04:49:12;96494.66;;;16.03;71.72
10992;BME280;5549;47.028;15.514;2022-09-09T04:51:39;96490.53;;;16.00;71.87
10992;BME280;5549;47.028;15.514;2022-09-09T04:54:08;96493.00;;;15.94;72.08
10992;BME280;5549;47.028;15.514;2022-09-09T04:56:38;96484.69;;;15.81;72.38
10992;BME280;5549;47.028;15.514;2022-09-09T04:59:10;96482.38;;;15.78;72.58
10992;BME280;5549;47.028;15.514;2022-09-09T05:01:40;96489.00;;;15.82;72.81
10992;BME280;5549;47.028;15.514;2022-09-09T05:04:08;96490.16;;;15.87;72.16
10992;BME280;5549;47.028;15.514;2022-09-09T05:06:38;96497.31;;;15.95;72.27
10992;BME280;5549;47.028;15.514;2022-09-09T05:09:08;96498.31;;;16.02;72.14
10992;BME280;5549;47.028;15.514;2022-09-09T05:11:35;96494.16;;;16.08;71.59
10992;BME280;5549;47.028;15.514;2022-09-09T05:14:04;96489.53;;;16.10;71.22
10992;BME280;5549;47.028;15.514;2022-09-09T05:16:34;96496.31;;;16.12;70.99
10992;BME280;5549;47.028;15.514;2022-09-09T05:19:02;96495.66;;;16.18;70.97
10992;BME280;5549;47.028;15.514;2022-09-09T05:21:30;96493.00;;;16.18;71.80
10992;BME280;5549;47.028;15.514;2022-09-09T05:24:00;96495.66;;;16.18;72.33
10992;BME280;5549;47.028;15.514;2022-09-09T05:26:29;96499.13;;;16.19;72.14
10992;BME280;5549;47.028;15.514;2022-09-09T05:28:57;96498.31;;;16.18;72.54
10992;BME280;5549;47.028;15.514;2022-09-09T05:31:30;96497.97;;;16.13;72.15
10992;BME280;5549;47.028;15.514;2022-09-09T05:33:59;96497.31;;;16.11;72.32
10992;BME280;5549;47.028;15.514;2022-09-09T05:36:26;96496.66;;;16.17;71.94
10992;BME280;5549;47.028;15.514;2022-09-09T05:38:56;96494.34;;;16.22;72.30
10992;BME280;5549;47.028;15.514;2022-09-09T05:41:24;96497.97;;;16.29;71.56
10992;BME280;5549;47.028;15.514;2022-09-09T05:43:56;96498.31;;;16.43;71.27
10992;BME280;5549;47.028;15.514;2022-09-09T05:46:27;96498.47;;;16.57;71.18
10992;BME280;5549;47.028;15.514;2022-09-09T05:48:58;96493.66;;;16.69;70.63
10992;BME280;5549;47.028;15.514;2022-09-09T05:51:28;96496.66;;;16.74;70.03
10992;BME280;5549;47.028;15.514;2022-09-09T05:54:00;96497.63;;;16.73;73.90
10992;BME280;5549;47.028;15.514;2022-09-09T05:56:28;96493.66;;;16.77;73.40
10992;BME280;5549;47.028;15.514;2022-09-09T05:58:58;96491.13;;;16.92;73.43
10992;BME280;5549;47.028;15.514;2022-09-09T06:01:27;96499.69;;;17.10;73.02
10992;BME280;5549;47.028;15.514;2022-09-09T06:03:55;96513.63;;;17.12;72.51
10992;BME280;5549;47.028;15.514;2022-09-09T06:06:25;96514.28;;;17.14;72.27
10992;BME280;5549;47.028;15.514;2022-09-09T06:08:54;96508.94;;;17.22;72.74
10992;BME280;5549;47.028;15.514;2022-09-09T06:11:30;96514.41;;;17.29;73.12
10992;BME280;5549;47.028;15.514;2022-09-09T06:14:03;96514.06;;;17.32;72.04
10992;BME280;5549;47.028;15.514;2022-09-09T06:16:33;96516.72;;;17.40;71.89
10992;BME280;5549;47.028;15.514;2022-09-09T06:19:04;96518.16;;;17.51;72.68
10992;BME280;5549;47.028;15.514;2022-09-09T06:21:34;96514.28;;;17.61;72.80
10992;BME280;5549;47.028;15.514;2022-09-09T06:24:03;96516.59;;;17.73;72.65
10992;BME280;5549;47.028;15.514;2022-09-09T06:26:35;96508.03;;;17.85;72.62
10992;BME280;5549;47.028;15.514;2022-09-09T06:29:05;96511.47;;;17.94;72.15
10992;BME280;5549;47.028;15.514;2022-09-09T06:31:36;96509.13;;;17.99;71.24
10992;BME280;5549;47.028;15.514;2022-09-09T06:34:08;96510.72;;;18.08;71.26
10992;BME280;5549;47.028;15.514;2022-09-09T06:36:39;96508.59;;;18.04;72.71
10992;BME280;5549;47.028;15.514;2022-09-09T06:39:07;96503.03;;;18.13;72.59
10992;BME280;5549;47.028;15.514;2022-09-09T06:41:37;96501.25;;;18.28;72.83
10992;BME280;5549;47.028;15.514;2022-09-09T06:44:07;96505.16;;;18.41;72.66
10992;BME280;5549;47.028;15.514;2022-09-09T06:46:37;96515.19;;;18.53;72.56
10992;BME280;5549;47.028;15.514;2022-09-09T06:49:05;96511.22;;;18.72;71.98
10992;BME280;5549;47.028;15.514;2022-09-09T06:51:36;96516.81;;;19.15;71.49
10992;BME280;5549;47.028;15.514;2022-09-09T06:54:12;96508.00;;;19.29;69.85
10992;BME280;5549;47.028;15.514;2022-09-09T06:56:42;96513.22;;;19.37;69.41
10992;BME280;5549;47.028;15.514;2022-09-09T06:59:13;96513.50;;;19.42;67.70
10992;BME280;5549;47.028;15.514;2022-09-09T07:01:42;96516.25;;;19.49;67.99
10992;BME280;5549;47.028;15.514;2022-09-09T07:04:13;96519.38;;;19.52;67.79
10992;BME280;5549;47.028;15.514;2022-09-09T07:06:45;96518.84;;;19.57;67.80
10992;BME280;5549;47.028;15.514;2022-09-09T07:09:15;96520.28;;;19.60;67.51
10992;BME280;5549;47.028;15.514;2022-09-09T07:11:46;96516.63;;;19.61;67.11
10992;BME280;5549;47.028;15.514;2022-09-09T07:14:17;96517.25;;;19.63;66.70
10992;BME280;5549;47.028;15.514;2022-09-09T07:16:46;96520.56;;;19.65;66.43
10992;BME280;5549;47.028;15.514;2022-09-09T07:19:14;96513.41;;;19.65;66.59
10992;BME280;5549;47.028;15.514;2022-09-09T07:21:45;96511.94;;;19.63;66.23
10992;BME280;5549;47.028;15.514;2022-09-09T07:24:14;96517.06;;;19.64;66.56
10992;BME280;5549;47.028;15.514;2022-09-09T07:26:45;96513.22;;;19.67;66.94
10992;BME280;5549;47.028;15.514;2022-09-09T07:29:13;96512.31;;;19.60;66.21
10992;BME280;5549;47.028;15.514;2022-09-09T07:31:42;96513.06;;;19.53;66.62
10992;BME280;5549;47.028;15.514;2022-09-09T07:34:12;96520.38;;;19.51;66.83
10992;BME280;5549;47.028;15.514;2022-09-09T07:36:40;96519.91;;;19.48;67.22
10992;BME280;5549;47.028;15.514;2022-09-09T07:39:13;96524.31;;;19.41;67.56
10992;BME280;5549;47.028;15.514;2022-09-09T07:41:45;96524.59;;;19.31;68.08
10992;BME280;5549;47.028;15.514;2022-09-09T07:44:15;96532.41;;;19.18;69.03
10992;BME280;5549;47.028;15.514;2022-09-09T07:46:47;96532.00;;;19.06;69.09
10992;BME280;5549;47.028;15.514;2022-09-09T07:49:16;96528.59;;;18.98;68.84
10992;BME280;5549;47.028;15.514;2022-09-09T07:51:47;96531.34;;;18.89;68.97
10992;BME280;5549;47.028;15.514;2022-09-09T07:54:17;96530.78;;;18.79;69.14
10992;BME280;5549;47.028;15.514;2022-09-09T07:56:47;96542.84;;;18.67;69.69
10992;BME280;5549;47.028;15.514;2022-09-09T07:59:17;96533.41;;;18.65;69.30
10992;BME280;5549;47.028;15.514;2022-09-09T08:01:49;96538.25;;;18.61;68.95
10992;BME280;5549;47.028;15.514;2022-09-09T08:04:21;96547.22;;;18.60;68.80
10992;BME280;5549;47.028;15.514;2022-09-09T08:06:54;96550.03;;;18.58;69.16
10992;BME280;5549;47.028;15.514;2022-09-09T08:09:22;96547.38;;;18.58;68.98
10992;BME280;5549;47.028;15.514;2022-09-09T08:11:53;96546.06;;;18.63;69.01
10992;BME280;5549;47.028;15.514;2022-09-09T08:14:22;96552.50;;;18.68;69.39
10992;BME280;5549;47.028;15.514;2022-09-09T08:16:53;96550.13;;;18.73;69.79
10992;BME280;5549;47.028;15.514;2022-09-09T08:19:21;96552.06;;;18.79;69.57
10992;BME280;5549;47.028;15.514;2022-09-09T08:21:49;96549.88;;;18.83;68.87
10992;BME280;5549;47.028;15.514;2022-09-09T08:24:17;96546.84;;;18.86;69.07
10992;BME280;5549;47.028;15.514;2022-09-09T08:26:47;96549.44;;;18.94;69.38
10992;BME280;5549;47.028;15.514;2022-09-09T08:29:20;96554.84;;;19.01;69.68
10992;BME280;5549;47.028;15.514;2022-09-09T08:31:54;96550.16;;;19.03;69.33
10992;BME280;5549;47.028;15.514;2022-09-09T08:34:26;96552.13;;;19.09;69.40
10992;BME280;5549;47.028;15.514;2022-09-09T08:36:56;96561.06;;;19.16;69.58
10992;BME280;5549;47.028;15.514;2022-09-09T08:39:25;96562.34;;;19.20;70.08
10992;BME280;5549;47.028;15.514;2022-09-09T08:45:19;96570.25;;;19.28;69.37
10992;BME280;5549;47.028;15.514;2022-09-09T08:48:08;96565.19;;;19.33;69.46
10992;BME280;5549;47.028;15.514;2022-09-09T08:50:40;96556.94;;;19.28;68.58
10992;BME280;5549;47.028;15.514;2022-09-09T08:53:15;96561.53;;;19.34;68.96
10992;BME280;5549;47.028;15.514;2022-09-09T08:55:47;96563.72;;;19.45;69.50
10992;BME280;5549;47.028;15.514;2022-09-09T08:58:18;96559.34;;;19.52;69.46
10992;BME280;5549;47.028;15.514;2022-09-09T09:01:03;96561.34;;;19.65;69.26
10992;BME280;5549;47.028;15.514;2022-09-09T09:03:48;96553.97;;;19.82;68.79
10992;BME280;5549;47.028;15.514;2022-09-09T09:06:35;96560.00;;;20.05;69.96
10992;BME280;5549;47.028;15.514;2022-09-09T09:09:16;96565.47;;;20.18;68.05
10992;BME280;5549;47.028;15.514;2022-09-09T09:11:52;96560.66;;;20.29;66.69
10992;BME280;5549;47.028;15.514;2022-09-09T09:14:24;96549.50;;;20.40;65.77
10992;BME280;5549;47.028;15.514;2022-09-09T09:16:56;96553.06;;;20.47;64.69
10992;BME280;5549;47.028;15.514;2022-09-09T09:19:30;96556.06;;;20.59;63.98
10992;BME280;5549;47.028;15.514;2022-09-09T09:22:10;96554.28;;;20.66;64.56
10992;BME280;5549;47.028;15.514;2022-09-09T09:24:51;96549.03;;;20.79;64.24
10992;BME280;5549;47.028;15.514;2022-09-09T09:27:31;96545.72;;;20.98;63.79
10992;BME280;5549;47.028;15.514;2022-09-09T09:30:10;96551.31;;;21.31;65.13
10992;BME280;5549;47.028;15.514;2022-09-09T09:32:43;96542.75;;;21.84;66.24
10992;BME280;5549;47.028;15.514;2022-09-09T09:35:15;96533.22;;;22.16;61.59
10992;BME280;5549;47.028;15.514;2022-09-09T09:37:46;96543.16;;;22.41;59.79
10992;BME280;5549;47.028;15.514;2022-09-09T09:40:18;96545.22;;;22.46;59.22
10992;BME280;5549;47.028;15.514;2022-09-09T09:42:52;96541.47;;;22.27;57.16
10992;BME280;5549;47.028;15.514;2022-09-09T09:45:32;96548.28;;;22.30;57.66
10992;BME280;5549;47.028;15.514;2022-09-09T09:48:03;96545.00;;;22.41;57.57
10992;BME280;5549;47.028;15.514;2022-09-09T09:50:33;96547.28;;;22.44;57.98
10992;BME280;5549;47.028;15.514;2022-09-09T09:53:04;96541.72;;;22.52;58.90
10992;BME280;5549;47.028;15.514;2022-09-09T09:55:35;96540.75;;;22.66;59.55
10992;BME280;5549;47.028;15.514;2022-09-09T09:58:06;96536.00;;;22.62;56.77
10992;BME280;5549;47.028;15.514;2022-09-09T10:00:36;96538.06;;;22.73;57.57
10992;BME280;5549;47.028;15.514;2022-09-09T10:03:26;96536.25;;;22.87;58.06
10992;BME280;5549;47.028;15.514;2022-09-09T10:05:55;96541.78;;;23.18;58.35
10992;BME280;5549;47.028;15.514;2022-09-09T10:08:27;96533.47;;;23.59;55.34
10992;BME280;5549;47.028;15.514;2022-09-09T10:11:23;96527.03;;;23.74;53.03
10992;BME280;5549;47.028;15.514;2022-09-09T10:14:04;96529.66;;;23.87;55.26
10992;BME280;5549;47.028;15.514;2022-09-09T10:16:51;96528.16;;;23.97;54.82
10992;BME280;5549;47.028;15.514;2022-09-09T10:19:30;96529.56;;;24.07;54.01
10992;BME280;5549;47.028;15.514;2022-09-09T10:22:15;96533.84;;;24.14;52.29
10992;BME280;5549;47.028;15.514;2022-09-09T10:25:30;96534.25;;;24.18;52.39
10992;BME280;5549;47.028;15.514;2022-09-09T10:28:29;96517.72;;;24.21;52.60
10992;BME280;5549;47.028;15.514;2022-09-09T10:31:12;96521.63;;;24.25;50.42
10992;BME280;5549;47.028;15.514;2022-09-09T10:33:50;96516.88;;;24.34;51.62
10992;BME280;5549;47.028;15.514;2022-09-09T10:36:21;96520.84;;;24.18;51.56
10992;BME280;5549;47.028;15.514;2022-09-09T10:38:59;96523.91;;;24.35;52.85
10992;BME280;5549;47.028;15.514;2022-09-09T10:41:44;96515.19;;;24.39;50.27
10992;BME280;5549;47.028;15.514;2022-09-09T10:44:33;96518.06;;;24.44;50.48
10992;BME280;5549;47.028;15.514;2022-09-09T10:47:42;96513.47;;;24.51;51.24
10992;BME280;5549;47.028;15.514;2022-09-09T10:50:42;96522.59;;;24.44;47.80
10992;BME280;5549;47.028;15.514;2022-09-09T10:53:24;96507.78;;;24.35;47.50
10992;BME280;5549;47.028;15.514;2022-09-09T10:56:01;96503.47;;;24.27;48.37
10992;BME280;5549;47.028;15.514;2022-09-09T10:58:42;96513.56;;;24.25;51.96
10992;BME280;5549;47.028;15.514;2022-09-09T11:01:19;96509.06;;;24.19;51.06
10992;BME280;5549;47.028;15.514;2022-09-09T11:03:54;96496.59;;;23.99;50.55
10992;BME280;5549;47.028;15.514;2022-09-09T11:06:31;96493.34;;;23.91;51.30
10992;BME280;5549;47.028;15.514;2022-09-09T11:09:02;96498.91;;;23.89;51.84
10992;BME280;5549;47.028;15.514;2022-09-09T11:11:41;96499.34;;;23.86;51.89
10992;BME280;5549;47.028;15.514;2022-09-09T11:14:19;96505.13;;;23.83;52.57
10992;BME280;5549;47.028;15.514;2022-09-09T11:16:53;96504.72;;;23.80;51.80
10992;BME280;5549;47.028;15.514;2022-09-09T11:19:29;96496.47;;;23.81;51.67
10992;BME280;5549;47.028;15.514;2022-09-09T11:22:05;96502.25;;;23.78;52.52
10992;BME280;5549;47.028;15.514;2022-09-09T11:24:39;96491.53;;;23.78;53.25
10992;BME280;5549;47.028;15.514;2022-09-09T11:27:17;96486.56;;;23.82;52.96
10992;BME280;5549;47.028;15.514;2022-09-09T11:30:17;96480.63;;;23.73;50.61
10992;BME280;5549;47.028;15.514;2022-09-09T11:33:33;96468.53;;;23.57;49.88
10992;BME280;5549;47.028;15.514;2022-09-09T11:36:51;96467.69;;;23.57;51.38
10992;BME280;5549;47.028;15.514;2022-09-09T11:42:38;96458.63;;;23.58;50.69
10992;BME280;5549;47.028;15.514;2022-09-09T11:45:18;96454.69;;;23.54;51.96
10992;BME280;5549;47.028;15.514;2022-09-09T11:47:53;96462.75;;;23.60;52.02
10992;BME280;5549;47.028;15.514;2022-09-09T11:50:36;96461.25;;;23.71;51.73
10992;BME280;5549;47.028;15.514;2022-09-09T11:53:19;96457.94;;;23.76;50.24
10992;BME280;5549;47.028;15.514;2022-09-09T11:56:11;96456.47;;;23.80;51.27
10992;BME280;5549;47.028;15.514;2022-09-09T11:58:56;96463.47;;;23.81;51.41
10992;BME280;5549;47.028;15.514;2022-09-09T12:01:30;96454.59;;;23.80;50.11
10992;BME280;5549;47.028;15.514;2022-09-09T12:04:37;96450.56;;;23.64;49.07
10992;BME280;5549;47.028;15.514;2022-09-09T12:07:30;96443.16;;;23.60;50.72
10992;BME280;5549;47.028;15.514;2022-09-09T12:10:03;96436.41;;;23.38;49.40
10992;BME280;5549;47.028;15.514;2022-09-09T12:12:35;96427.63;;;23.17;48.74
10992;BME280;5549;47.028;15.514;2022-09-09T12:15:28;96429.84;;;23.27;49.84
10992;BME280;5549;47.028;15.514;2022-09-09T12:17:58;96423.69;;;23.26;51.09
10992;BME280;5549;47.028;15.514;2022-09-09T12:20:35;96429.66;;;23.22;49.96
10992;BME280;5549;47.028;15.514;2022-09-09T12:23:24;96417.88;;;23.29;51.12
10992;BME280;5549;47.028;15.514;2022-09-09T12:26:25;96421.75;;;23.40;51.80
10992;BME280;5549;47.028;15.514;2022-09-09T12:29:08;96426.28;;;23.46;52.30
10992;BME280;5549;47.028;15.514;2022-09-09T12:31:51;96431.81;;;23.51;53.15
10992;BME280;5549;47.028;15.514;2022-09-09T12:34:33;96422.94;;;23.51;52.16
10992;BME280;5549;47.028;15.514;2022-09-09T12:37:13;96420.75;;;23.34;50.97
10992;BME280;5549;47.028;15.514;2022-09-09T12:39:53;96407.88;;;23.05;51.05
10992;BME280;5549;47.028;15.514;2022-09-09T12:42:25;96408.13;;;22.90;51.58
10992;BME280;5549;47.028;15.514;2022-09-09T12:44:57;96408.72;;;22.79;52.12
10992;BME280;5549;47.028;15.514;2022-09-09T12:47:37;96395.78;;;22.69;52.43
10992;BME280;5549;47.028;15.514;2022-09-09T12:50:17;96395.78;;;22.56;52.49
10992;BME280;5549;47.028;15.514;2022-09-09T12:52:50;96397.66;;;22.56;51.85
10992;BME280;5549;47.028;15.514;2022-09-09T12:55:23;96408.34;;;22.62;53.87
10992;BME280;5549;47.028;15.514;2022-09-09T12:57:52;96408.13;;;22.70;53.87
10992;BME280;5549;47.028;15.514;2022-09-09T13:00:24;96395.97;;;22.75;53.30
10992;BME280;5549;47.028;15.514;2022-09-09T13:02:56;96398.44;;;22.76;53.50
10992;BME280;5549;47.028;15.514;2022-09-09T13:05:35;96394.94;;;22.76;53.70
10992;BME280;5549;47.028;15.514;2022-09-09T13:08:06;96390.84;;;22.80;54.08
10992;BME280;5549;47.028;15.514;2022-09-09T13:10:43;96390.00;;;22.79;53.59
10992;BME280;5549;47.028;15.514;2022-09-09T13:13:14;96385.88;;;22.77;53.48
10992;BME280;5549;47.028;15.514;2022-09-09T13:15:50;96386.28;;;22.73;54.00
10992;BME280;5549;47.028;15.514;2022-09-09T13:18:23;96377.03;;;22.69;54.54
10992;BME280;5549;47.028;15.514;2022-09-09T13:20:52;96378.06;;;22.68;54.58
10992;BME280;5549;47.028;15.514;2022-09-09T13:23:22;96374.38;;;22.69;55.22
10992;BME280;5549;47.028;15.514;2022-09-09T13:25:55;96375.63;;;22.60;54.41
10992;BME280;5549;47.028;15.514;2022-09-09T13:28:28;96366.75;;;22.60;54.77
10992;BME280;5549;47.028;15.514;2022-09-09T13:30:58;96360.38;;;22.61;55.61
10992;BME280;5549;47.028;15.514;2022-09-09T13:33:33;96359.34;;;22.62;55.46
10992;BME280;5549;47.028;15.514;2022-09-09T13:36:11;96360.78;;;22.64;56.07
10992;BME280;5549;47.028;15.514;2022-09-09T13:38:54;96363.66;;;22.69;57.15
10992;BME280;5549;47.028;15.514;2022-09-09T13:41:25;96364.06;;;22.73;57.85
10992;BME280;5549;47.028;15.514;2022-09-09T13:43:53;96359.53;;;22.73;58.38
10992;BME280;5549;47.028;15.514;2022-09-09T13:46:32;96358.69;;;22.73;58.60
10992;BME280;5549;47.028;15.514;2022-09-09T13:49:19;96362.00;;;22.68;56.54